CheckWX is a tool to help pilots better visualize weather data.  It is not intended as a substitute for an official pre-flight weather briefing.

18:50:39 UTC

KNYC METAR
Central Park
New York City, New York, USA
Current

24 mins ago

KNYC 111827Z AUTO 14005KT 4SM BR FEW036 SCT047 SCT075 26/25 A2970 RMK AO2 RAE25 P0009 T02610250 $
Observed
Jul-11 @ 18:27 UTC
Wind
  • 140° at 5 KTS
Visibility
4 SM
Flight Rules
MVFR
Conditions
Mist
Cloud Levels
  • Few at 3,600' AGL
  • Scattered at 4,700' AGL
  • Scattered at 7,500' AGL
Temperature
26°C / 79°F
Dewpoint
25°C / 77°F
Humidity
94%
Altimeter
29.7" Hg
Pressure
1005.72 hPa
Current Rain
0.09"
Previous

32 mins ago

KNYC 111819Z AUTO 00000KT 2SM -RA BR FEW033 SCT047 BKN060 26/24 A2970 RMK AO2 VIS 3/4V4 P0009 T02560244 $
Observed
Jul-11 @ 18:19 UTC
Visibility
2 SM
Flight Rules
IFR
Conditions
Light Rain, Mist
Cloud Levels
  • Few at 3,300' AGL
  • Scattered at 4,700' AGL
  • Broken at 6,000' AGL
Temperature
26°C / 79°F
Dewpoint
24°C / 75°F
Humidity
89%
Altimeter
29.7" Hg
Pressure
1005.72 hPa
Current Rain
0.09"
Previous

51 mins ago

KNYC 111800Z AUTO 1 3/4SM -RA BR FEW022 BKN043 OVC070 26/24 A2971 RMK AO2 P0001 T02560244 $
Observed
Jul-11 @ 18:00 UTC
Visibility
1 3/4 SM
Flight Rules
IFR
Conditions
Light Rain, Mist
Cloud Levels
  • Few at 2,200' AGL
  • Broken at 4,300' AGL
  • Overcast at 7,000' AGL
Temperature
26°C / 79°F
Dewpoint
24°C / 75°F
Humidity
89%
Altimeter
29.71" Hg
Pressure
1006.12 hPa
Current Rain
0.01"